EZY76U EGGD-LGSK
Flight info
| Callsign | EZY76U |
|---|---|
| Flight time | N/A |
| Altitude | 37000 |
| Route | HAWFA L607 KONAN UL607 MATUG DCT AMASI DCT BOMBI T104 HAREM/N0441F390 T104 XERUM DCT BAVAX DCT RADIZ DCT NIPEL DCT ABISO DCT NEMEK DCT MEDUX UM867 KOGAT DCT ERANA UL737 TSL |
| Aircraft | A20N/M-SDE2E3FGHIJ1RWXYZ/LB1 |
Departure
| Time | N/A |
|---|---|
| Airport | Bristol Airport (EGGD) |
Arrival
| Time | 2026-05-09 13:37 |
|---|---|
| Airport | Skiathos Island National Airport (LGSK) |
| Time | Latitude | Longitude | Altitude | Speed | Heading |
|---|---|---|---|---|---|
| 2026-05-09 12:54 | 42.50039 | 20.42910 | 39082 ft | 491 kts | 132° |
| 2026-05-09 12:54 | 42.47850 | 20.46481 | 39082 ft | 491 kts | 132° |
| 2026-05-09 12:55 | 42.43502 | 20.53560 | 39087 ft | 491 kts | 132° |
| 2026-05-09 12:55 | 42.39169 | 20.60598 | 39085 ft | 490 kts | 132° |
| 2026-05-09 12:56 | 42.34744 | 20.67769 | 39084 ft | 490 kts | 132° |
| 2026-05-09 12:56 | 42.30366 | 20.74847 | 39085 ft | 490 kts | 132° |
| 2026-05-09 12:57 | 42.26013 | 20.81867 | 39086 ft | 490 kts | 132° |
| 2026-05-09 12:57 | 42.21627 | 20.88923 | 39082 ft | 490 kts | 132° |
| 2026-05-09 12:58 | 42.17225 | 20.95987 | 39082 ft | 490 kts | 132° |
| 2026-05-09 12:58 | 42.12896 | 21.02918 | 39086 ft | 490 kts | 132° |
| 2026-05-09 12:59 | 42.08170 | 21.09492 | 39066 ft | 486 kts | 139° |
| 2026-05-09 12:59 | 42.03266 | 21.15695 | 39061 ft | 486 kts | 139° |
| 2026-05-09 13:00 | 41.98334 | 21.21951 | 39057 ft | 486 kts | 139° |
| 2026-05-09 13:00 | 41.93410 | 21.28183 | 39046 ft | 486 kts | 139° |
| 2026-05-09 13:01 | 41.88458 | 21.34435 | 39043 ft | 487 kts | 139° |
| 2026-05-09 13:01 | 41.83516 | 21.40659 | 39048 ft | 487 kts | 139° |
| 2026-05-09 13:02 | 41.78569 | 21.46875 | 39051 ft | 488 kts | 139° |
| 2026-05-09 13:02 | 41.73590 | 21.53119 | 39059 ft | 488 kts | 139° |
| 2026-05-09 13:03 | 41.68628 | 21.59328 | 39061 ft | 488 kts | 139° |
| 2026-05-09 13:03 | 41.63662 | 21.65527 | 39064 ft | 489 kts | 139° |
| 2026-05-09 13:04 | 41.58685 | 21.71727 | 39069 ft | 490 kts | 139° |
| 2026-05-09 13:04 | 41.53747 | 21.77865 | 39061 ft | 489 kts | 139° |
| 2026-05-09 13:05 | 41.48771 | 21.84037 | 39056 ft | 489 kts | 140° |
| 2026-05-09 13:05 | 41.43770 | 21.90224 | 39055 ft | 489 kts | 140° |
| 2026-05-09 13:06 | 41.38785 | 21.96379 | 39055 ft | 489 kts | 140° |
| 2026-05-09 13:06 | 41.33792 | 22.02530 | 39050 ft | 489 kts | 140° |
| 2026-05-09 13:07 | 41.28793 | 22.08676 | 39053 ft | 490 kts | 140° |
| 2026-05-09 13:07 | 41.23803 | 22.14797 | 39050 ft | 491 kts | 140° |
| 2026-05-09 13:08 | 41.18799 | 22.20923 | 39046 ft | 488 kts | 140° |
| 2026-05-09 13:08 | 41.13667 | 22.26815 | 39033 ft | 487 kts | 144° |
| 2026-05-09 13:08 | 41.11037 | 22.29637 | 38813 ft | 486 kts | 144° |
| 2026-05-09 13:09 | 41.08401 | 22.32474 | 38204 ft | 488 kts | 143° |
| 2026-05-09 13:09 | 41.05757 | 22.35317 | 37428 ft | 489 kts | 143° |
| 2026-05-09 13:09 | 41.03104 | 22.38167 | 36549 ft | 492 kts | 143° |
| 2026-05-09 13:09 | 41.00425 | 22.41040 | 35675 ft | 496 kts | 143° |
| 2026-05-09 13:10 | 40.97739 | 22.43918 | 34893 ft | 497 kts | 143° |
| 2026-05-09 13:10 | 40.95070 | 22.46777 | 34379 ft | 492 kts | 143° |
| 2026-05-09 13:10 | 40.92438 | 22.49594 | 34090 ft | 481 kts | 143° |
| 2026-05-09 13:10 | 40.89855 | 22.52356 | 33834 ft | 476 kts | 143° |
| 2026-05-09 13:11 | 40.87263 | 22.55121 | 33565 ft | 483 kts | 143° |
| 2026-05-09 13:11 | 40.84637 | 22.57916 | 33291 ft | 485 kts | 143° |
| 2026-05-09 13:11 | 40.82011 | 22.60713 | 33022 ft | 484 kts | 143° |
| 2026-05-09 13:11 | 40.79388 | 22.63502 | 32757 ft | 484 kts | 143° |
| 2026-05-09 13:12 | 40.76762 | 22.66292 | 32496 ft | 485 kts | 143° |
| 2026-05-09 13:12 | 40.74132 | 22.69084 | 32240 ft | 485 kts | 143° |
| 2026-05-09 13:12 | 40.71497 | 22.71878 | 31984 ft | 485 kts | 143° |
| 2026-05-09 13:12 | 40.68892 | 22.74637 | 31736 ft | 485 kts | 143° |
| 2026-05-09 13:13 | 40.66261 | 22.77420 | 31486 ft | 485 kts | 143° |
| 2026-05-09 13:13 | 40.63630 | 22.80202 | 31159 ft | 485 kts | 143° |
| 2026-05-09 13:13 | 40.60997 | 22.82981 | 30516 ft | 486 kts | 142° |
| 2026-05-09 13:13 | 40.58363 | 22.85759 | 29811 ft | 484 kts | 142° |
| 2026-05-09 13:14 | 40.55743 | 22.88519 | 29229 ft | 478 kts | 142° |
| 2026-05-09 13:14 | 40.53163 | 22.91236 | 28626 ft | 472 kts | 142° |
| 2026-05-09 13:16 | 40.33971 | 23.04937 | 24637 ft | 438 kts | 162° |
| 2026-05-09 13:16 | 40.31138 | 23.06345 | 24128 ft | 434 kts | 162° |
| 2026-05-09 13:16 | 40.28317 | 23.07747 | 23528 ft | 432 kts | 162° |
| 2026-05-09 13:16 | 40.25515 | 23.09139 | 22976 ft | 428 kts | 162° |
| 2026-05-09 13:17 | 40.22748 | 23.10512 | 22439 ft | 423 kts | 162° |
| 2026-05-09 13:17 | 40.20019 | 23.11865 | 21895 ft | 418 kts | 162° |
| 2026-05-09 13:17 | 40.17308 | 23.13208 | 21360 ft | 414 kts | 162° |
| 2026-05-09 13:17 | 40.14625 | 23.14535 | 20827 ft | 410 kts | 162° |
| 2026-05-09 13:18 | 40.11970 | 23.15847 | 20290 ft | 407 kts | 162° |
| 2026-05-09 13:18 | 40.09334 | 23.17149 | 19772 ft | 403 kts | 162° |
| 2026-05-09 13:18 | 40.07596 | 23.18006 | 19425 ft | 402 kts | 162° |
| 2026-05-09 13:18 | 40.04987 | 23.19293 | 18885 ft | 399 kts | 162° |
| 2026-05-09 13:19 | 40.02396 | 23.20569 | 18338 ft | 397 kts | 162° |
| 2026-05-09 13:19 | 39.99828 | 23.21834 | 17809 ft | 393 kts | 162° |
| 2026-05-09 13:19 | 39.97284 | 23.23087 | 17290 ft | 388 kts | 163° |
| 2026-05-09 13:19 | 39.94766 | 23.24326 | 16773 ft | 384 kts | 163° |
| 2026-05-09 13:20 | 39.92278 | 23.25549 | 16281 ft | 380 kts | 163° |
| 2026-05-09 13:20 | 39.89816 | 23.26758 | 15768 ft | 376 kts | 163° |
| 2026-05-09 13:20 | 39.87381 | 23.27952 | 15276 ft | 373 kts | 163° |
| 2026-05-09 13:20 | 39.84962 | 23.29138 | 14773 ft | 369 kts | 163° |
| 2026-05-09 13:21 | 39.82565 | 23.30312 | 14289 ft | 366 kts | 163° |
| 2026-05-09 13:21 | 39.80189 | 23.31474 | 13795 ft | 363 kts | 163° |
| 2026-05-09 13:21 | 39.77838 | 23.32623 | 13300 ft | 359 kts | 163° |
| 2026-05-09 13:21 | 39.75514 | 23.33759 | 12831 ft | 355 kts | 163° |
| 2026-05-09 13:22 | 39.73230 | 23.34874 | 12369 ft | 350 kts | 163° |
| 2026-05-09 13:22 | 39.70960 | 23.35981 | 11905 ft | 346 kts | 163° |
| 2026-05-09 13:22 | 39.68717 | 23.37074 | 11454 ft | 343 kts | 162° |
| 2026-05-09 13:23 | 39.60064 | 23.41290 | 10235 ft | 312 kts | 162° |
| 2026-05-09 13:23 | 39.58076 | 23.42259 | 10067 ft | 301 kts | 162° |
| 2026-05-09 13:24 | 39.56131 | 23.43203 | 9792 ft | 294 kts | 162° |
| 2026-05-09 13:24 | 39.54228 | 23.44126 | 9639 ft | 292 kts | 162° |
| 2026-05-09 13:24 | 39.52286 | 23.45065 | 9314 ft | 296 kts | 162° |
| 2026-05-09 13:24 | 39.50356 | 23.45998 | 8972 ft | 295 kts | 162° |
| 2026-05-09 13:25 | 39.48446 | 23.46923 | 8627 ft | 292 kts | 162° |
| 2026-05-09 13:25 | 39.46558 | 23.47839 | 8291 ft | 288 kts | 162° |
| 2026-05-09 13:25 | 39.42878 | 23.49620 | 7632 ft | 280 kts | 162° |
| 2026-05-09 13:26 | 39.41061 | 23.50499 | 7303 ft | 277 kts | 162° |
| 2026-05-09 13:26 | 39.39267 | 23.51367 | 6976 ft | 274 kts | 162° |
| 2026-05-09 13:26 | 39.37490 | 23.52225 | 6656 ft | 271 kts | 162° |
| 2026-05-09 13:26 | 39.35729 | 23.53076 | 6335 ft | 268 kts | 162° |
| 2026-05-09 13:27 | 39.33990 | 23.53916 | 6028 ft | 265 kts | 162° |
| 2026-05-09 13:27 | 39.32282 | 23.54740 | 5775 ft | 259 kts | 162° |
| 2026-05-09 13:27 | 39.30599 | 23.55551 | 5453 ft | 257 kts | 162° |
| 2026-05-09 13:27 | 39.28930 | 23.56356 | 5149 ft | 255 kts | 162° |
| 2026-05-09 13:28 | 39.27269 | 23.57156 | 4833 ft | 254 kts | 162° |
| 2026-05-09 13:28 | 39.25619 | 23.57949 | 4510 ft | 252 kts | 161° |
| 2026-05-09 13:28 | 39.23978 | 23.58738 | 4205 ft | 251 kts | 161° |
| 2026-05-09 13:28 | 39.22345 | 23.59524 | 4027 ft | 256 kts | 161° |
| 2026-05-09 13:29 | 39.20670 | 23.60330 | 3997 ft | 256 kts | 161° |
| 2026-05-09 13:29 | 39.19004 | 23.61103 | 3989 ft | 252 kts | 168° |
| 2026-05-09 13:29 | 39.17266 | 23.61120 | 4003 ft | 254 kts | 196° |
| 2026-05-09 13:29 | 39.15645 | 23.60264 | 3972 ft | 246 kts | 208° |
| 2026-05-09 13:30 | 39.14159 | 23.59233 | 3966 ft | 241 kts | 211° |
| 2026-05-09 13:30 | 39.12689 | 23.58175 | 3967 ft | 242 kts | 211° |
| 2026-05-09 13:30 | 39.11228 | 23.57152 | 3926 ft | 235 kts | 210° |
| 2026-05-09 13:30 | 39.09808 | 23.56194 | 3855 ft | 226 kts | 209° |
| 2026-05-09 13:31 | 39.08450 | 23.55298 | 3710 ft | 212 kts | 208° |
| 2026-05-09 13:31 | 39.07180 | 23.54469 | 3571 ft | 198 kts | 208° |
| 2026-05-09 13:31 | 39.05962 | 23.53676 | 3255 ft | 195 kts | 208° |
| 2026-05-09 13:31 | 39.04747 | 23.52883 | 2885 ft | 198 kts | 207° |
| 2026-05-09 13:32 | 39.03528 | 23.52087 | 2582 ft | 200 kts | 206° |
| 2026-05-09 13:32 | 39.01670 | 23.49690 | 2132 ft | 193 kts | 263° |
| 2026-05-09 13:32 | 39.01890 | 23.48090 | 2063 ft | 175 kts | 304° |
| 2026-05-09 13:33 | 39.02759 | 23.47128 | 1975 ft | 161 kts | 338° |
| 2026-05-09 13:33 | 39.03865 | 23.46753 | 1972 ft | 165 kts | 356° |
| 2026-05-09 13:33 | 39.04985 | 23.46763 | 1977 ft | 154 kts | 8° |
| 2026-05-09 13:33 | 39.05980 | 23.46952 | 1986 ft | 140 kts | 13° |
| 2026-05-09 13:34 | 39.06919 | 23.47163 | 1967 ft | 135 kts | 3° |
| 2026-05-09 13:34 | 39.07856 | 23.47066 | 1956 ft | 136 kts | 358° |
| 2026-05-09 13:34 | 39.08796 | 23.46992 | 1856 ft | 135 kts | 1° |
| 2026-05-09 13:34 | 39.09723 | 23.47030 | 1734 ft | 132 kts | 9° |
| 2026-05-09 13:35 | 39.10631 | 23.47235 | 1603 ft | 132 kts | 16° |
| 2026-05-09 13:35 | 39.11508 | 23.47550 | 1456 ft | 129 kts | 21° |
| 2026-05-09 13:35 | 39.12351 | 23.47958 | 1285 ft | 129 kts | 23° |
| 2026-05-09 13:35 | 39.13192 | 23.48384 | 1102 ft | 132 kts | 22° |
| 2026-05-09 13:36 | 39.14051 | 23.48777 | 875 ft | 130 kts | 17° |
| 2026-05-09 13:36 | 39.14911 | 23.49134 | 635 ft | 129 kts | 19° |
| 2026-05-09 13:36 | 39.15759 | 23.49509 | 418 ft | 129 kts | 18° |
| 2026-05-09 13:36 | 39.16605 | 23.49879 | 210 ft | 129 kts | 19° |
| 2026-05-09 13:37 | 39.17431 | 23.50245 | 47 ft | 113 kts | 19° |
| 2026-05-09 13:37 | 39.17875 | 23.50441 | 67 ft | 23 kts | 16° |
| 2026-05-09 13:37 | 39.17948 | 23.50399 | 67 ft | 5 kts | 267° |
| 2026-05-09 13:37 | 39.17938 | 23.50360 | 61 ft | 0 kts | 252° |
| 2026-05-09 13:38 | 39.17931 | 23.50344 | 61 ft | 6 kts | 231° |
| 2026-05-09 13:38 | 39.17880 | 23.50303 | 58 ft | 9 kts | 203° |
| 2026-05-09 13:38 | 39.17870 | 23.50298 | 59 ft | 5 kts | 201° |
| 2026-05-09 13:39 | 39.17819 | 23.50276 | 61 ft | 4 kts | 199° |
| 2026-05-09 13:39 | 39.17815 | 23.50262 | 53 ft | 1 kts | 279° |
| 2026-05-09 13:39 | 39.17821 | 23.50256 | 53 ft | 1 kts | 326° |
| 2026-05-09 13:39 | 39.17830 | 23.50248 | 61 ft | 2 kts | 328° |
| 2026-05-09 13:40 | 39.17849 | 23.50235 | 60 ft | 4 kts | 332° |
| 2026-05-09 13:40 | 39.17874 | 23.50216 | 60 ft | 1 kts | 329° |